Terminal Aerodrome Forecast
Issued by NWS Los Angeles, CA

Home | Current Version | Previous Version | Text Only | Print | Product List | Glossary On
Versions: 1 2 3 4 5 6 7 8 9 10 11 12 13 14 15 16 17 18 19 20 21 22 23 24 25 26 27
000
FTUS46 KLOX 281800 AAA
TAFSMX
TAF AMD
KSMX 281800Z 2818/2918 VRB05KT P6SM SCT010
     FM282000 30012KT P6SM SKC
     FM290200 30007KT P6SM SKC
     FM290500 VRB03KT 6SM BR BKN006
     FM290800 VRB03KT 3SM BR OVC004
     FM291300 VRB03KT 1SM BR OVC002=

USA.gov is the U.S. government's official web portal to all federal, state and local government web resources and services.